Time;durP1;ratioP1;P1;durP2;ratioP2;P2;SDS_P1;SDS_P2;PMS_P1;PMS_P2;Temp;Humidity;BMP_temperature;BMP_pressure;BME280_temperature;BME280_humidity;BME280_pressure;Samples;Min_cycle;Max_cycle;Signal;HPM_P1;HPM_P2
2022/04/13 00:01:13;;;;;;;19.88;14.43;;;;;;;17.20;33.91;93229.00;5004609;28;20049;-93
2022/04/13 00:03:43;;;;;;;19.17;12.85;;;;;;;17.20;33.80;93226.28;5010702;28;20076;-93
2022/04/13 00:06:09;;;;;;;17.80;13.55;;;;;;;17.20;33.81;93226.28;5038464;28;20041;-93
2022/04/13 00:08:34;;;;;;;17.08;13.23;;;;;;;17.20;34.09;93218.81;5025002;28;20038;-94
2022/04/13 00:11:00;;;;;;;15.32;13.32;;;;;;;17.19;33.97;93219.34;5031297;28;20465;-93
2022/04/13 00:13:27;;;;;;;16.42;13.20;;;;;;;17.20;33.90;93223.53;5024161;28;20033;-93
2022/04/13 00:15:59;;;;;;;15.82;12.10;;;;;;;17.19;33.93;93224.78;5042403;28;20025;-93
2022/04/13 00:18:25;;;;;;;18.67;12.15;;;;;;;17.19;33.90;93219.34;5025427;28;20048;-93
2022/04/13 00:20:50;;;;;;;16.70;13.05;;;;;;;17.18;33.91;93221.31;5024863;28;20380;-93
2022/04/13 00:23:18;;;;;;;16.63;12.98;;;;;;;17.18;34.03;93224.06;5041611;28;20032;-93
2022/04/13 00:25:47;;;;;;;13.32;11.18;;;;;;;17.18;34.01;93223.31;5041675;28;20486;-93
2022/04/13 00:28:14;;;;;;;13.15;11.43;;;;;;;17.18;34.26;93220.56;5042009;28;20072;-93
2022/04/13 00:48:22;;;;;;;13.20;10.40;;;;;;;17.14;34.32;93202.47;5059780;28;20412;-94
2022/04/13 00:50:49;;;;;;;13.05;10.70;;;;;;;17.14;34.22;93207.19;5054418;28;20040;-93
2022/04/13 01:10:05;;;;;;;;;;;;;;;17.15;34.24;93195.03;5058037;28;20047;-92
2022/04/13 01:12:31;;;;;;;12.40;8.90;;;;;;;17.12;34.01;93183.13;5038052;28;20437;-92
2022/04/13 01:14:59;;;;;;;10.52;8.68;;;;;;;17.11;34.23;93186.34;5040490;28;20040;-93
2022/04/13 01:17:24;;;;;;;12.80;9.20;;;;;;;17.10;34.23;93182.88;5023739;28;20119;-92
2022/04/13 01:19:50;;;;;;;11.23;8.68;;;;;;;17.11;34.01;93181.63;5058009;28;20372;-93
2022/04/13 01:22:20;;;;;;;9.82;8.63;;;;;;;17.11;34.29;93184.38;5058100;28;20040;-93
2022/04/13 01:24:46;;;;;;;11.38;9.38;;;;;;;17.11;34.15;93187.09;5044614;28;20115;-93
2022/04/13 01:27:20;;;;;;;12.38;9.43;;;;;;;17.10;34.41;93188.34;5042503;28;20533;-93
2022/04/13 01:29:49;;;;;;;11.80;8.90;;;;;;;17.10;34.02;93188.34;5043750;28;20085;-93
2022/04/13 01:32:14;;;;;;;11.48;9.57;;;;;;;17.11;34.29;93189.81;5041317;28;20044;-93
2022/04/13 01:34:48;;;;;;;11.15;8.55;;;;;;;17.09;34.15;93186.88;5027199;28;20029;-94
2022/04/13 01:37:13;;;;;;;10.40;8.32;;;;;;;17.10;34.44;93185.59;5042309;28;20039;-92
2022/04/13 01:39:39;;;;;;;9.65;8.15;;;;;;;17.11;34.35;93191.81;5042304;28;20363;-92
2022/04/13 01:42:04;;;;;;;9.55;7.72;;;;;;;17.10;34.15;93191.06;5054392;28;20463;-92
2022/04/13 01:44:31;;;;;;;12.20;8.27;;;;;;;17.10;34.57;93196.53;5041136;28;20043;-93
2022/04/13 01:46:56;;;;;;;9.38;8.38;;;;;;;17.10;34.29;93196.53;5041375;28;20515;-93
2022/04/13 01:49:23;;;;;;;9.18;7.13;;;;;;;17.11;34.55;93194.53;5024570;28;20048;-93
2022/04/13 01:51:55;;;;;;;9.68;7.35;;;;;;;17.10;34.31;93188.34;5026101;28;20535;-93
2022/04/13 01:54:21;;;;;;;10.95;8.50;;;;;;;17.11;34.14;93183.63;5058329;28;20048;-93
2022/04/13 01:56:48;;;;;;;10.20;7.45;;;;;;;17.09;34.25;93191.59;5026466;28;20064;-93
2022/04/13 01:59:14;;;;;;;9.00;7.07;;;;;;;17.08;34.23;93192.84;5020759;28;20065;-93
2022/04/13 02:01:45;;;;;;;9.60;7.85;;;;;;;17.10;34.59;93187.63;5032138;28;20261;-93
2022/04/13 02:04:22;;;;;;;8.88;7.28;;;;;;;17.08;34.54;93193.59;5043113;28;20211;-93
2022/04/13 02:06:47;;;;;;;8.00;7.07;;;;;;;17.10;34.27;93198.56;5026133;28;20088;-93
2022/04/13 02:09:13;;;;;;;8.00;7.20;;;;;;;17.09;34.44;93191.59;5041607;28;20078;-93
2022/04/13 02:11:39;;;;;;;9.60;7.68;;;;;;;17.08;34.52;93195.59;5022337;28;20059;-93
2022/04/13 02:14:05;;;;;;;8.10;6.28;;;;;;;17.09;34.28;93192.34;5021645;28;20507;-91
2022/04/13 02:16:32;;;;;;;9.13;6.65;;;;;;;17.08;34.41;93198.31;5039418;28;20064;-92
2022/04/13 02:18:57;;;;;;;7.45;6.15;;;;;;;17.07;34.05;93199.56;5038739;28;20033;-92
2022/04/13 02:21:23;;;;;;;9.23;7.38;;;;;;;17.08;34.13;93198.31;5021969;28;20408;-93
2022/04/13 02:23:49;;;;;;;9.10;7.45;;;;;;;17.06;34.54;93184.41;5030958;28;20495;-93
2022/04/13 02:26:17;;;;;;;8.55;6.72;;;;;;;17.08;34.42;93198.31;5055354;28;20033;-92
2022/04/13 02:28:42;;;;;;;6.93;6.22;;;;;;;17.08;34.10;93199.06;5026526;28;20523;-92
2022/04/13 02:31:08;;;;;;;10.27;7.25;;;;;;;17.07;34.45;93200.31;5041972;28;20063;-93
2022/04/13 02:33:34;;;;;;;7.85;6.25;;;;;;;17.07;34.52;93196.84;5024777;28;20419;-93
2022/04/13 02:36:00;;;;;;;7.25;5.82;;;;;;;17.06;34.54;93198.81;5042776;28;20032;-92
2022/04/13 02:38:27;;;;;;;7.00;6.20;;;;;;;17.07;34.39;93191.38;5039965;28;20040;-93
2022/04/13 02:40:53;;;;;;;8.55;6.18;;;;;;;17.07;34.34;93202.28;5058569;28;20193;-92
2022/04/13 02:43:18;;;;;;;6.57;5.82;;;;;;;17.07;34.64;93196.84;5029893;28;20028;-92
2022/04/13 02:45:44;;;;;;;7.72;6.03;;;;;;;17.06;34.58;93195.34;5058992;28;20037;-93
2022/04/13 02:48:09;;;;;;;7.07;5.75;;;;;;;17.05;34.52;93191.88;5042623;28;20044;-93
2022/04/13 02:50:35;;;;;;;6.97;5.82;;;;;;;17.04;34.44;93190.38;5025457;28;20498;-93
2022/04/13 02:53:00;;;;;;;7.63;6.00;;;;;;;17.05;34.26;93191.88;5025603;28;20043;-92
2022/04/13 02:55:26;;;;;;;6.25;5.55;;;;;;;17.05;34.19;93193.88;5040355;28;20043;-92
2022/04/13 02:57:51;;;;;;;8.68;6.18;;;;;;;17.05;34.36;93193.88;5025657;28;20063;-92
2022/04/13 03:00:18;;;;;;;7.10;5.00;;;;;;;17.05;34.07;93185.66;5032760;28;20045;-93
2022/04/13 03:02:46;;;;;;;6.95;5.25;;;;;;;17.05;34.57;93193.88;5033685;28;20055;-92
2022/04/13 03:05:12;;;;;;;6.88;5.70;;;;;;;17.04;34.26;93190.38;5040910;28;20059;-92
2022/04/13 03:07:37;;;;;;;8.43;5.45;;;;;;;17.05;34.79;93196.59;5043294;28;20033;-92
2022/04/13 03:10:03;;;;;;;6.20;5.57;;;;;;;17.02;34.39;93194.88;5024553;28;20033;-92
2022/04/13 03:12:29;;;;;;;6.30;5.28;;;;;;;17.03;34.52;93199.81;5019011;28;20036;-92
2022/04/13 03:14:54;;;;;;;5.57;4.90;;;;;;;17.04;34.47;93193.13;5042151;28;20029;-92
2022/04/13 03:17:20;;;;;;;6.43;5.45;;;;;;;17.03;34.64;93185.44;5041495;28;20405;-92
2022/04/13 03:19:46;;;;;;;6.50;4.75;;;;;;;17.02;34.28;93192.13;5043268;28;20036;-93
2022/04/13 03:22:23;;;;;;;5.95;4.60;;;;;;;17.03;34.50;93199.09;5041326;28;20036;-92
2022/04/13 03:24:48;;;;;;;5.40;4.40;;;;;;;17.03;34.54;93193.63;5036918;28;20032;-92
2022/04/13 03:27:15;;;;;;;5.55;4.75;;;;;;;17.02;34.34;93197.59;5045297;28;20484;-92
2022/04/13 03:29:41;;;;;;;5.28;4.78;;;;;;;17.03;34.57;93201.81;5045659;28;20039;-92
2022/04/13 03:32:08;;;;;;;6.43;5.35;;;;;;;17.03;34.66;93205.28;5027862;28;20039;-93
2022/04/13 03:34:35;;;;;;;5.28;4.45;;;;;;;17.00;34.53;93200.09;5029097;28;20041;-93
2022/04/13 03:37:07;;;;;;;6.78;4.97;;;;;;;17.01;34.48;93196.13;5030186;28;20121;-93
2022/04/13 03:39:32;;;;;;;11.10;4.22;;;;;;;17.03;34.17;93199.81;5022602;28;20033;-90
2022/04/13 03:41:58;;;;;;;6.35;4.60;;;;;;;17.02;34.54;93203.06;5008355;28;20514;-90
2022/04/13 03:44:24;;;;;;;7.47;4.88;;;;;;;17.02;34.14;93197.59;5035993;28;20037;-90
2022/04/13 03:46:50;;;;;;;6.00;4.18;;;;;;;17.01;34.73;93205.06;5033500;28;20033;-87
2022/04/13 03:49:15;;;;;;;5.95;4.45;;;;;;;17.03;34.59;93213.47;5063384;28;20040;-86
2022/04/13 03:51:41;;;;;;;6.78;4.32;;;;;;;17.02;34.91;93205.78;5035750;28;20044;-87
2022/04/13 03:54:07;;;;;;;7.43;4.55;;;;;;;17.02;34.57;93208.53;5035272;28;20047;-85
2022/04/13 03:56:33;;;;;;;9.43;4.72;;;;;;;17.04;34.55;93203.31;5037986;28;20041;-87
2022/04/13 03:58:59;;;;;;;5.90;4.30;;;;;;;17.02;34.59;93211.25;5020678;28;20518;-88
2022/04/13 04:01:25;;;;;;;5.13;4.20;;;;;;;17.05;34.83;93215.72;5014042;28;20061;-88
2022/04/13 04:03:51;;;;;;;6.00;4.35;;;;;;;17.02;34.44;93222.19;5017099;28;20127;-88
2022/04/13 04:06:16;;;;;;;6.78;4.53;;;;;;;17.03;34.77;93226.41;5017084;28;20052;-91
2022/04/13 04:08:42;;;;;;;6.28;4.22;;;;;;;17.01;34.48;93220.69;5016656;28;20037;-90
2022/04/13 04:11:07;;;;;;;7.57;4.40;;;;;;;17.01;34.43;93228.88;5018133;28;20033;-86
2022/04/13 04:13:33;;;;;;;9.02;4.35;;;;;;;17.02;34.92;93231.13;5051384;28;20447;-87
2022/04/13 04:16:00;;;;;;;9.25;5.28;;;;;;;17.03;34.73;93229.13;5017766;28;20480;-86
2022/04/13 04:18:27;;;;;;;6.75;4.78;;;;;;;17.06;34.43;93231.59;5018472;28;20040;-87
2022/04/13 04:20:52;;;;;;;8.50;4.45;;;;;;;17.04;34.50;93225.16;5035007;28;20569;-87
2022/04/13 04:23:18;;;;;;;24.65;17.00;;;;;;;17.04;34.58;93234.09;5035284;28;20037;-87
2022/04/13 04:25:43;;;;;;;15.23;7.13;;;;;;;17.04;34.78;93230.59;5034392;28;20043;-89
2022/04/13 04:28:10;;;;;;;7.07;5.18;;;;;;;17.05;34.79;93245.75;5027958;28;20049;-87
2022/04/13 04:30:37;;;;;;;14.13;5.38;;;;;;;17.08;34.34;93240.03;5018596;28;20080;-88
2022/04/13 04:33:02;;;;;;;16.75;9.38;;;;;;;17.09;34.57;93240.75;5025495;28;20048;-87
2022/04/13 04:35:27;;;;;;;26.23;14.85;;;;;;;17.06;35.02;93247.97;5032228;28;20133;-86
2022/04/13 04:37:53;;;;;;;45.33;27.83;;;;;;;17.09;35.07;93246.22;5034396;28;20388;-94
2022/04/13 04:40:20;;;;;;;54.47;35.88;;;;;;;17.12;34.93;93240.47;5036877;28;20055;-92
2022/04/13 04:42:46;;;;;;;82.45;49.55;;;;;;;17.16;34.90;93242.19;5054995;28;20085;-89
2022/04/13 04:45:13;;;;;;;123.50;59.90;;;;;;;17.18;34.69;93237.72;5034661;28;20079;-89
2022/04/13 04:47:39;;;;;;;71.65;44.70;;;;;;;17.18;34.57;93245.91;5044969;28;20033;-91
2022/04/13 04:50:05;;;;;;;79.50;50.00;;;;;;;17.22;34.55;93240.19;5013945;28;20048;-91
2022/04/13 04:52:31;;;;;;;85.07;54.80;;;;;;;17.21;34.52;93246.88;5052095;28;20049;-92
2022/04/13 04:54:58;;;;;;;73.75;31.38;;;;;;;17.08;33.07;93247.47;5020396;28;20059;-92
2022/04/13 04:57:24;;;;;;;66.07;23.58;;;;;;;16.99;32.89;93245.78;5050670;28;20051;-90
2022/04/13 04:59:49;;;;;;;33.95;15.70;;;;;;;16.95;32.63;93244.56;5018729;28;20029;-90
2022/04/13 05:02:15;;;;;;;27.77;13.68;;;;;;;16.86;32.36;93253.06;5037515;28;20036;-92
2022/04/13 05:04:50;;;;;;;30.67;14.68;;;;;;;16.74;32.21;93250.38;5027710;28;20043;-93
2022/04/13 05:07:15;;;;;;;29.67;13.02;;;;;;;16.82;31.94;93247.13;5023215;28;20037;-93
2022/04/13 05:09:41;;;;;;;41.15;11.48;;;;;;;16.66;31.98;93256.88;5018871;28;20041;-92
2022/04/13 05:12:09;;;;;;;24.58;9.13;;;;;;;16.70;32.09;93254.59;5028161;28;20036;-92
2022/04/13 05:14:34;;;;;;;24.77;8.82;;;;;;;16.59;32.08;93251.91;5053758;28;20042;-92
2022/04/13 05:17:02;;;;;;;26.83;9.80;;;;;;;16.59;32.46;93249.19;5033798;28;20590;-92
2022/04/13 05:19:28;;;;;;;23.17;9.20;;;;;;;16.51;32.51;93254.41;5014744;28;20057;-92
2022/04/13 05:21:56;;;;;;;15.38;7.85;;;;;;;16.47;32.65;93251.19;5004229;28;20129;-95
2022/04/13 05:24:25;;;;;;;22.77;9.82;;;;;;;16.42;32.54;93266.34;4966716;28;20046;-93
2022/04/13 05:26:51;;;;;;;38.63;11.10;;;;;;;16.40;32.60;93268.09;5002812;28;20042;-93
2022/04/13 05:29:25;;;;;;;33.05;10.23;;;;;;;16.43;32.35;93273.31;4976248;28;20125;-94
2022/04/13 05:31:52;;;;;;;46.80;8.57;;;;;;;16.41;32.62;93270.34;4986545;28;20041;-91
2022/04/13 05:34:19;;;;;;;17.13;8.05;;;;;;;16.46;32.97;93266.06;4995312;28;20030;-93
2022/04/13 05:36:44;;;;;;;129.93;40.38;;;;;;;16.45;32.82;93264.63;4991937;28;20042;-91
2022/04/13 05:39:10;;;;;;;29.42;11.85;;;;;;;16.46;32.92;93266.81;5032654;28;20052;-89
2022/04/13 05:41:36;;;;;;;64.10;18.33;;;;;;;16.46;32.79;93266.06;5000260;28;20049;-92
2022/04/13 05:44:02;;;;;;;22.52;7.53;;;;;;;16.46;32.86;93263.34;4986189;28;20068;-91
2022/04/13 05:46:28;;;;;;;13.40;7.30;;;;;;;16.40;33.07;93262.66;4992470;28;20532;-90
2022/04/13 05:48:55;;;;;;;17.08;6.88;;;;;;;16.32;33.09;93270.59;4978534;28;20054;-90
2022/04/13 05:51:24;;;;;;;15.90;7.63;;;;;;;16.29;33.46;93276.31;5026836;28;20052;-89
2022/04/13 05:53:49;;;;;;;23.20;11.82;;;;;;;16.27;33.25;93284.97;5037576;28;20075;-93
2022/04/13 05:56:15;;;;;;;22.25;14.68;;;;;;;16.30;33.66;93285.97;5021408;28;20687;-93
2022/04/13 05:58:41;;;;;;;35.10;16.00;;;;;;;16.33;33.08;93279.53;5018324;28;20518;-88
2022/04/13 06:01:07;;;;;;;35.72;15.95;;;;;;;16.31;33.39;93282.00;5033010;28;20041;-92
2022/04/13 06:03:33;;;;;;;39.38;16.52;;;;;;;16.34;33.21;93275.56;5016585;28;20029;-91
2022/04/13 06:05:59;;;;;;;58.20;17.88;;;;;;;16.22;33.49;93274.84;5027945;28;20036;-90
2022/04/13 06:08:24;;;;;;;37.40;17.08;;;;;;;16.35;33.29;93279.75;5036388;28;20098;-87
2022/04/13 06:10:50;;;;;;;106.25;75.75;;;;;;;16.33;33.49;93283.00;5018042;28;20033;-89
2022/04/13 06:13:15;;;;;;;30.08;15.57;;;;;;;16.40;33.33;93282.50;5014154;28;20078;-91
2022/04/13 06:15:41;;;;;;;36.25;16.80;;;;;;;16.52;33.38;93274.25;4999447;28;20163;-91
2022/04/13 06:18:07;;;;;;;55.28;28.23;;;;;;;16.60;33.74;93273.25;5017311;28;20097;-87
2022/04/13 06:20:32;;;;;;;46.13;25.40;;;;;;;16.68;33.44;93282.41;5037394;28;20563;-90
2022/04/13 06:22:57;;;;;;;40.55;21.48;;;;;;;16.69;32.97;93280.41;5017103;28;20121;-90
2022/04/13 06:25:25;;;;;;;55.42;26.42;;;;;;;16.72;33.03;93280.16;5029591;28;21343;-90
2022/04/13 06:27:51;;;;;;;49.63;25.80;;;;;;;16.78;33.14;93271.94;5007083;28;20045;-89
2022/04/13 06:30:16;;;;;;;54.63;26.70;;;;;;;16.77;33.14;93279.41;5017317;28;20032;-88
2022/04/13 06:32:43;;;;;;;62.53;27.60;;;;;;;16.85;33.07;93290.53;5017183;28;20060;-91
2022/04/13 06:35:14;;;;;;;81.95;29.02;;;;;;;16.84;33.15;93285.56;5036804;28;20036;-92
2022/04/13 06:37:45;;;;;;;80.15;26.95;;;;;;;16.87;33.10;93290.03;5008067;28;20104;-93
2022/04/13 06:40:10;;;;;;;81.28;29.52;;;;;;;16.91;32.66;93291.22;5005282;28;20118;-92
2022/04/13 06:42:39;;;;;;;77.63;29.45;;;;;;;16.93;33.16;93290.72;5031434;28;20040;-91
2022/04/13 06:45:06;;;;;;;95.05;31.50;;;;;;;16.96;33.19;93287.75;5045529;28;20109;-91
2022/04/13 06:47:32;;;;;;;77.20;33.58;;;;;;;17.00;33.16;93292.94;5045075;28;20495;-92
2022/04/13 06:49:57;;;;;;;89.93;35.45;;;;;;;17.01;33.15;93294.44;5043252;28;20068;-90
2022/04/13 06:52:25;;;;;;;86.10;37.63;;;;;;;17.04;33.25;93287.97;5026626;28;20036;-93
2022/04/13 06:54:50;;;;;;;88.13;36.28;;;;;;;17.04;32.97;93296.91;5057189;28;20102;-90
2022/04/13 06:57:16;;;;;;;82.65;35.97;;;;;;;17.07;32.88;93284.97;5025371;28;20036;-89
2022/04/13 06:59:42;;;;;;;89.45;37.70;;;;;;;17.11;32.90;93292.88;5043687;28;20093;-88
2022/04/13 07:02:10;;;;;;;98.45;38.60;;;;;;;17.09;33.37;93290.66;5031667;28;20044;-92
2022/04/13 07:04:37;;;;;;;102.45;37.67;;;;;;;17.13;32.88;93299.31;5032876;28;20055;-90
2022/04/13 07:07:03;;;;;;;94.63;39.17;;;;;;;17.13;33.04;93295.84;5032818;28;20072;-91
2022/04/13 07:09:29;;;;;;;95.05;41.17;;;;;;;17.17;33.35;93299.06;5052455;28;20047;-93
2022/04/13 07:11:54;;;;;;;164.90;61.63;;;;;;;17.18;33.02;93291.59;5024017;28;20087;-95
2022/04/13 07:14:23;;;;;;;134.07;57.55;;;;;;;17.22;32.93;93289.34;5053833;28;20603;-93
2022/04/13 07:16:49;;;;;;;132.85;52.38;;;;;;;17.22;33.22;93298.28;5038878;28;20060;-93
2022/04/13 07:19:14;;;;;;;125.05;53.28;;;;;;;17.23;33.25;93288.09;4983095;28;20046;-92
2022/04/13 07:21:40;;;;;;;133.63;58.88;;;;;;;17.24;33.17;93284.88;4968353;28;20114;-93
2022/04/13 07:24:07;;;;;;;138.57;59.83;;;;;;;17.27;33.17;93292.06;4999701;28;20041;-87
2022/04/13 07:26:33;;;;;;;166.82;73.70;;;;;;;17.28;32.86;93290.06;5000529;28;20875;-91
2022/04/13 07:29:00;;;;;;;269.27;136.05;;;;;;;17.29;33.15;93286.81;4986130;28;20085;-93
2022/04/13 07:31:26;;;;;;;248.13;127.88;;;;;;;17.31;32.90;93291.78;4981789;28;20515;-89
2022/04/13 07:33:52;;;;;;;249.98;134.50;;;;;;;17.31;33.25;93289.78;4980125;28;20141;-89
2022/04/13 07:36:18;;;;;;;237.18;123.00;;;;;;;17.37;33.26;93295.19;4960541;28;20077;-91
2022/04/13 07:38:47;;;;;;;183.15;98.28;;;;;;;17.33;33.36;93295.47;4986884;28;20030;-89
2022/04/13 07:41:15;;;;;;;179.60;93.03;;;;;;;17.34;33.01;93301.69;4960007;28;20061;-89
2022/04/13 07:43:44;;;;;;;178.93;88.53;;;;;;;17.36;33.00;93299.94;4979569;28;20420;-92
2022/04/13 07:46:11;;;;;;;147.45;79.65;;;;;;;17.37;33.01;93304.16;4951038;28;20047;-92
2022/04/13 07:48:39;;;;;;;143.13;70.28;;;;;;;17.36;33.41;93302.66;4977203;28;20038;-92
2022/04/13 07:51:10;;;;;;;129.63;64.03;;;;;;;17.41;33.00;93301.16;5001576;28;20049;-93
2022/04/13 07:53:37;;;;;;;203.10;111.68;;;;;;;17.42;33.25;93302.63;4971560;28;20085;-91
2022/04/13 07:56:03;;;;;;;166.30;92.22;;;;;;;17.43;33.44;93296.66;5031456;28;20049;-89
2022/04/13 07:58:28;;;;;;;232.50;137.15;;;;;;;17.42;33.15;93300.63;4957602;28;20045;-95
2022/04/13 08:00:54;;;;;;;253.68;142.45;;;;;;;17.43;33.41;93304.13;4981862;28;20490;-95
2022/04/13 08:03:20;;;;;;;222.50;137.23;;;;;;;17.45;33.25;93310.56;4961496;28;20045;-90
2022/04/13 08:05:46;;;;;;;257.77;156.50;;;;;;;17.43;33.33;93306.84;4962118;28;20197;-93
2022/04/13 08:08:11;;;;;;;202.40;113.75;;;;;;;17.46;33.46;93305.84;4967201;28;20056;-92
2022/04/13 08:10:50;;;;;;;227.80;105.60;;;;;;;17.48;33.08;93306.81;4978419;28;20037;-94
2022/04/13 08:13:16;;;;;;;225.38;95.97;;;;;;;17.48;33.22;93308.81;4997946;28;20053;-91
2022/04/13 08:15:44;;;;;;;170.40;83.95;;;;;;;17.48;33.38;93320.47;4985266;28;20056;-92
2022/04/13 08:18:10;;;;;;;255.45;109.32;;;;;;;17.48;33.08;93311.53;5001226;28;20041;-91
2022/04/13 08:21:04;;;;;;;176.57;87.63;;;;;;;17.47;33.65;93310.78;5005425;28;20048;-92
2022/04/13 08:23:31;;;;;;;211.50;116.28;;;;;;;17.51;33.44;93313.25;5006238;28;20105;-91
2022/04/13 08:26:00;;;;;;;242.82;124.93;;;;;;;17.51;33.47;93312.53;5012848;28;20052;-94
2022/04/13 08:28:32;;;;;;;189.65;94.15;;;;;;;17.50;33.72;93303.59;4993116;28;20045;-92
2022/04/13 08:30:57;;;;;;;244.15;107.20;;;;;;;17.54;33.20;93314.97;5015112;28;20041;-90
2022/04/13 08:33:24;;;;;;;240.05;128.43;;;;;;;17.54;33.02;93314.25;4965388;28;20117;-91
2022/04/13 08:35:53;;;;;;;205.10;109.05;;;;;;;17.54;33.11;93314.97;5019027;22;20050;-94
2022/04/13 08:38:48;;;;;;;239.45;131.90;;;;;;;17.55;33.62;93319.19;4976588;28;20106;-95
2022/04/13 08:41:34;;;;;;;209.60;119.43;;;;;;;17.56;33.24;93320.66;4881523;29;20049;-92
2022/04/13 08:44:20;;;;;;;;;;;;;;;;;;;;;
2022/04/13 08:48:02;;;;;;;207.30;117.85;;;;;;;17.56;33.33;93323.41;4856136;29;20219;-92
2022/04/13 08:50:06;;;;;;;220.38;123.68;;;;;;;17.57;33.41;93316.69;4846055;29;20045;-94
2022/04/13 08:52:32;;;;;;;186.70;108.80;;;;;;;17.60;33.56;93323.13;4882321;29;20124;-89
2022/04/13 08:55:11;;;;;;;172.00;102.35;;;;;;;17.59;33.69;93325.13;4881759;29;20049;-94
2022/04/13 08:57:45;;;;;;;196.15;116.70;;;;;;;17.59;33.63;93322.38;4871051;29;20073;-94
2022/04/13 09:00:20;;;;;;;213.82;128.18;;;;;;;17.61;33.79;93328.09;4847196;29;20067;-90
2022/04/13 09:03:17;;;;;;;192.05;117.13;;;;;;;17.61;33.73;93332.81;4886769;29;20041;-89
2022/04/13 09:05:49;;;;;;;188.27;106.13;;;;;;;17.63;33.88;93330.31;4938581;22;20049;-94
2022/04/13 09:08:23;;;;;;;148.43;88.63;;;;;;;17.60;33.66;93325.88;4979327;28;20049;-87
2022/04/13 09:10:50;;;;;;;166.30;83.15;;;;;;;17.63;33.79;93338.53;5035543;28;20135;-90
2022/04/13 09:13:16;;;;;;;173.18;89.43;;;;;;;17.65;33.52;93333.31;5007602;28;20091;-90
2022/04/13 09:15:42;;;;;;;167.80;89.13;;;;;;;17.66;33.62;93343.00;4992722;28;20104;-92
2022/04/13 09:18:09;;;;;;;148.80;87.95;;;;;;;17.65;33.94;93336.78;4998077;28;20077;-88
2022/04/13 09:20:35;;;;;;;150.20;85.30;;;;;;;17.67;33.20;93341.75;4979120;28;20072;-89
2022/04/13 09:23:00;;;;;;;149.68;84.95;;;;;;;17.67;33.32;93341.75;4997436;28;20037;-89
2022/04/13 09:25:27;;;;;;;160.07;84.18;;;;;;;17.67;33.52;93339.03;4993932;28;20144;-86
2022/04/13 09:27:52;;;;;;;144.15;86.00;;;;;;;17.67;33.54;93342.50;5005105;28;20037;-88
2022/04/13 09:30:18;;;;;;;168.00;91.18;;;;;;;17.66;33.59;93337.53;5002557;28;20048;-91
2022/04/13 09:32:44;;;;;;;158.73;89.38;;;;;;;17.65;34.05;93336.78;5020161;28;20039;-87
2022/04/13 09:35:09;;;;;;;143.52;81.13;;;;;;;17.64;33.56;93335.31;5002669;28;20041;-90
2022/04/13 09:37:35;;;;;;;149.63;83.70;;;;;;;17.65;33.83;93341.53;4988023;28;20346;-90
2022/04/13 09:40:01;;;;;;;144.07;82.88;;;;;;;17.66;34.10;93341.00;5000642;28;20093;-93
2022/04/13 09:42:29;;;;;;;147.15;83.43;;;;;;;17.66;33.67;93337.53;4975364;28;20100;-91
2022/04/13 09:44:57;;;;;;;133.52;79.10;;;;;;;17.70;34.08;93341.50;4980295;28;20064;-91
2022/04/13 09:47:23;;;;;;;141.05;79.43;;;;;;;17.67;33.91;93341.75;4996477;28;20038;-91
2022/04/13 09:49:58;;;;;;;151.98;82.40;;;;;;;17.67;34.00;93341.75;5011524;28;20041;-91
2022/04/13 09:52:41;;;;;;;164.48;89.82;;;;;;;17.67;33.92;93339.75;5035056;22;20499;-93
2022/04/13 09:55:08;;;;;;;165.05;86.30;;;;;;;17.69;33.91;93333.78;4994168;28;20076;-92
2022/04/13 09:57:33;;;;;;;160.27;89.15;;;;;;;17.69;33.82;93333.78;5013084;28;20033;-90
2022/04/13 10:00:04;;;;;;;162.77;83.85;;;;;;;17.68;33.90;93338.50;4998759;28;20053;-91
2022/04/13 10:02:40;;;;;;;163.32;81.95;;;;;;;17.67;34.10;93339.03;4953164;28;20114;-92
2022/04/13 10:05:35;;;;;;;197.52;83.38;;;;;;;17.66;33.77;93337.53;4954344;28;20046;-92
2022/04/13 10:08:11;;;;;;;167.73;79.53;;;;;;;17.66;33.87;93332.81;4965627;28;20035;-91
2022/04/13 10:10:46;;;;;;;146.30;76.63;;;;;;;17.68;33.74;93332.31;4933395;28;20039;-89
2022/04/13 10:13:32;;;;;;;163.73;76.47;;;;;;;17.70;34.28;93338.75;4958572;28;20039;-88
2022/04/13 10:16:00;;;;;;;141.63;70.65;;;;;;;17.71;34.35;93334.78;4949883;28;20035;-91
2022/04/13 10:18:50;;;;;;;122.40;65.45;;;;;;;17.69;34.29;93340.00;4923685;28;20089;-92
2022/04/13 10:21:36;;;;;;;125.50;67.93;;;;;;;17.67;34.11;93330.81;4927130;28;20486;-92
2022/04/13 10:24:28;;;;;;;120.20;64.63;;;;;;;17.68;34.06;93327.59;4912306;28;20058;-89
2022/04/13 10:27:51;;;;;;;115.75;64.03;;;;;;;17.66;34.41;93332.81;4924531;29;20027;-90
2022/04/13 10:30:26;;;;;;;105.07;57.95;;;;;;;17.66;34.46;93332.06;4856515;29;20096;-94
2022/04/13 10:33:06;;;;;;;115.80;56.67;;;;;;;17.68;34.02;93327.59;4961688;28;20038;-94
2022/04/13 10:35:33;;;;;;;105.57;56.10;;;;;;;17.69;34.12;93331.81;4940351;28;20156;-93
2022/04/13 10:37:58;;;;;;;103.57;57.17;;;;;;;17.69;34.37;93331.06;4937590;28;20163;-94
2022/04/13 10:40:26;;;;;;;101.57;54.65;;;;;;;17.67;34.84;93330.81;4917096;28;20043;-93
2022/04/13 10:42:52;;;;;;;90.00;50.35;;;;;;;17.68;34.69;93327.59;4923738;28;20035;-94
2022/04/13 10:45:18;;;;;;;94.47;50.03;;;;;;;17.69;34.74;93326.34;4958195;28;20521;-94
2022/04/13 10:47:53;;;;;;;82.22;46.88;;;;;;;17.66;34.81;93330.06;4964517;28;20085;-94
2022/04/13 10:50:24;;;;;;;93.85;46.88;;;;;;;17.70;34.60;93329.81;4985817;28;20050;-93
2022/04/13 10:52:59;;;;;;;86.90;48.05;;;;;;;17.68;34.45;93327.59;4944688;28;20054;-93
2022/04/13 10:55:27;;;;;;;99.30;47.80;;;;;;;17.70;34.49;93332.53;4959682;28;20097;-93
2022/04/13 10:58:03;;;;;;;228.18;67.30;;;;;;;17.70;34.28;93325.09;4983160;28;20519;-93
2022/04/13 11:00:31;;;;;;;223.07;68.88;;;;;;;17.74;34.66;93335.75;5009310;28;20048;-93
2022/04/13 11:02:58;;;;;;;181.35;58.90;;;;;;;17.70;34.50;93330.56;5019338;28;20044;-93
2022/04/13 11:05:26;;;;;;;137.20;53.55;;;;;;;17.70;34.72;93333.28;5017352;28;20112;-94
2022/04/13 11:08:01;;;;;;;141.93;56.83;;;;;;;17.73;34.71;93329.53;5015681;28;20041;-89
2022/04/13 11:10:28;;;;;;;136.85;57.85;;;;;;;17.74;34.99;93328.28;5004373;28;20045;-92
2022/04/13 11:12:54;;;;;;;110.53;48.28;;;;;;;17.72;34.78;93328.06;4985082;28;20030;-91
2022/04/13 11:15:39;;;;;;;109.72;49.20;;;;;;;17.71;34.81;93323.09;4993080;28;20045;-90
2022/04/13 11:18:16;;;;;;;114.40;47.53;;;;;;;17.73;34.96;93331.53;5016582;28;20033;-92
2022/04/13 11:21:03;;;;;;;107.90;52.33;;;;;;;17.74;34.59;93333.75;5025499;28;20042;-89
2022/04/13 11:23:49;;;;;;;114.25;50.38;;;;;;;17.73;34.60;93326.81;5023233;28;20045;-91
2022/04/13 11:26:28;;;;;;;109.38;55.88;;;;;;;17.77;34.64;93327.25;5004520;28;20046;-90
2022/04/13 11:29:23;;;;;;;227.70;52.17;;;;;;;17.78;34.63;93331.47;5031915;28;20033;-94
2022/04/13 11:32:01;;;;;;;100.75;44.45;;;;;;;17.77;34.84;93338.19;5021561;28;20056;-91
2022/04/13 11:34:54;;;;;;;96.45;44.28;;;;;;;17.80;34.70;93341.91;5037999;28;20075;-94
2022/04/13 11:43:07;;;;;;;103.83;49.23;;;;;;;17.77;34.84;93340.19;4788875;28;6131499;-92
2022/04/13 11:48:48;;;;;;;121.50;52.30;;;;;;;17.75;35.71;93346.16;4866262;29;20120;-93
2022/04/13 11:51:36;;;;;;;121.90;52.80;;;;;;;17.75;35.36;93337.25;4876497;29;20605;-93
2022/04/13 11:54:10;;;;;;;127.25;46.47;;;;;;;17.79;35.14;93343.88;4825282;29;20058;-87
2022/04/13 11:56:39;;;;;;;100.70;49.00;;;;;;;17.79;35.07;93335.69;4847742;29;20513;-91
2022/04/13 11:59:05;;;;;;;112.75;47.83;;;;;;;17.79;34.78;93341.16;4842680;29;20072;-91
2022/04/13 12:01:33;;;;;;;89.13;48.22;;;;;;;17.81;34.68;93335.19;4832927;29;20044;-90
2022/04/13 12:03:58;;;;;;;126.10;60.00;;;;;;;17.81;35.21;93335.94;4830715;29;20317;-93
2022/04/13 12:06:29;;;;;;;122.63;55.58;;;;;;;17.82;34.94;93336.66;4842715;29;20053;-88
2022/04/13 12:08:55;;;;;;;131.67;66.87;;;;;;;17.84;35.35;93325.97;4837114;29;20049;-86
2022/04/13 12:11:23;;;;;;;127.30;62.28;;;;;;;17.84;34.87;93325.97;4857997;29;20416;-88